sensor_id;sensor_type;location;lat;lon;timestamp;pressure;altitude;pressure_sealevel;temperature;humidity
28456;BME280;15682;56.742;38.866;2023-11-19T00:01:16;100450.0;;;-5.6;86.0
28456;BME280;15682;56.742;38.866;2023-11-19T00:03:16;100440.0;;;-5.6;85.4
28456;BME280;15682;56.742;38.866;2023-11-19T00:05:15;100430.0;;;-5.6;84.8
28456;BME280;15682;56.742;38.866;2023-11-19T00:07:16;100430.0;;;-5.7;84.6
28456;BME280;15682;56.742;38.866;2023-11-19T00:09:15;100430.0;;;-5.7;85.4
28456;BME280;15682;56.742;38.866;2023-11-19T00:11:15;100430.0;;;-5.7;85.4
28456;BME280;15682;56.742;38.866;2023-11-19T00:13:15;100430.0;;;-5.6;86.8
28456;BME280;15682;56.742;38.866;2023-11-19T00:15:15;100430.0;;;-5.5;86.8
28456;BME280;15682;56.742;38.866;2023-11-19T00:17:14;100430.0;;;-5.5;85.8
28456;BME280;15682;56.742;38.866;2023-11-19T00:19:14;100430.0;;;-5.7;85.8
28456;BME280;15682;56.742;38.866;2023-11-19T00:21:14;100430.0;;;-5.7;85.8
28456;BME280;15682;56.742;38.866;2023-11-19T00:23:14;100430.0;;;-5.7;86.4
28456;BME280;15682;56.742;38.866;2023-11-19T00:25:14;100430.0;;;-5.7;85.6
28456;BME280;15682;56.742;38.866;2023-11-19T00:27:13;100430.0;;;-5.7;85.4
28456;BME280;15682;56.742;38.866;2023-11-19T00:29:13;100430.0;;;-5.6;86.1
28456;BME280;15682;56.742;38.866;2023-11-19T00:31:13;100420.0;;;-5.6;86.1
28456;BME280;15682;56.742;38.866;2023-11-19T00:33:13;100420.0;;;-5.5;86.1
28456;BME280;15682;56.742;38.866;2023-11-19T00:35:13;100420.0;;;-5.6;87.0
28456;BME280;15682;56.742;38.866;2023-11-19T00:37:12;100410.0;;;-5.6;86.4
28456;BME280;15682;56.742;38.866;2023-11-19T00:39:12;100410.0;;;-5.6;86.4
28456;BME280;15682;56.742;38.866;2023-11-19T00:41:12;100410.0;;;-5.6;86.4
28456;BME280;15682;56.742;38.866;2023-11-19T00:43:12;100410.0;;;-5.6;85.4
28456;BME280;15682;56.742;38.866;2023-11-19T00:45:12;100410.0;;;-5.6;86.0
28456;BME280;15682;56.742;38.866;2023-11-19T00:47:11;100410.0;;;-5.6;86.2
28456;BME280;15682;56.742;38.866;2023-11-19T00:49:11;100400.0;;;-5.7;85.3
28456;BME280;15682;56.742;38.866;2023-11-19T00:51:12;100400.0;;;-5.7;84.3
28456;BME280;15682;56.742;38.866;2023-11-19T00:53:11;100400.0;;;-5.7;84.3
28456;BME280;15682;56.742;38.866;2023-11-19T00:55:11;100400.0;;;-5.7;84.3
28456;BME280;15682;56.742;38.866;2023-11-19T00:57:10;100400.0;;;-5.7;84.8
28456;BME280;15682;56.742;38.866;2023-11-19T00:59:10;100400.0;;;-5.7;84.8
28456;BME280;15682;56.742;38.866;2023-11-19T01:01:11;100400.0;;;-5.7;84.8
28456;BME280;15682;56.742;38.866;2023-11-19T01:03:10;100400.0;;;-5.7;85.3
28456;BME280;15682;56.742;38.866;2023-11-19T01:05:10;100400.0;;;-5.7;85.4
28456;BME280;15682;56.742;38.866;2023-11-19T01:07:10;100400.0;;;-5.7;85.9
28456;BME280;15682;56.742;38.866;2023-11-19T01:09:09;100400.0;;;-5.7;85.9
28456;BME280;15682;56.742;38.866;2023-11-19T01:11:11;100400.0;;;-5.7;85.9
28456;BME280;15682;56.742;38.866;2023-11-19T01:13:09;100400.0;;;-5.8;85.2
28456;BME280;15682;56.742;38.866;2023-11-19T01:15:09;100400.0;;;-5.8;85.2
28456;BME280;15682;56.742;38.866;2023-11-19T01:17:08;100400.0;;;-5.8;84.9
28456;BME280;15682;56.742;38.866;2023-11-19T01:19:08;100400.0;;;-5.8;85.2
28456;BME280;15682;56.742;38.866;2023-11-19T01:21:08;100400.0;;;-5.8;85.2
28456;BME280;15682;56.742;38.866;2023-11-19T01:23:08;100400.0;;;-5.6;84.3
28456;BME280;15682;56.742;38.866;2023-11-19T01:25:08;100400.0;;;-5.6;83.4
28456;BME280;15682;56.742;38.866;2023-11-19T01:27:07;100390.0;;;-5.7;84.3
28456;BME280;15682;56.742;38.866;2023-11-19T01:29:07;100390.0;;;-5.7;83.7
28456;BME280;15682;56.742;38.866;2023-11-19T01:31:07;100390.0;;;-5.6;84.3
28456;BME280;15682;56.742;38.866;2023-11-19T01:33:07;100390.0;;;-5.7;84.3
28456;BME280;15682;56.742;38.866;2023-11-19T01:35:07;100390.0;;;-5.7;84.3
28456;BME280;15682;56.742;38.866;2023-11-19T01:37:06;100380.0;;;-5.7;83.7
28456;BME280;15682;56.742;38.866;2023-11-19T01:39:06;100380.0;;;-5.7;83.7
28456;BME280;15682;56.742;38.866;2023-11-19T01:41:06;100380.0;;;-5.7;83.2
28456;BME280;15682;56.742;38.866;2023-11-19T01:43:06;100380.0;;;-5.6;83.2
28456;BME280;15682;56.742;38.866;2023-11-19T01:45:07;100380.0;;;-5.7;83.2
28456;BME280;15682;56.742;38.866;2023-11-19T01:47:06;100380.0;;;-5.7;83.1
28456;BME280;15682;56.742;38.866;2023-11-19T01:49:06;100380.0;;;-5.7;83.1
28456;BME280;15682;56.742;38.866;2023-11-19T01:51:05;100380.0;;;-5.7;82.6
28456;BME280;15682;56.742;38.866;2023-11-19T01:53:05;100380.0;;;-5.5;83.4
28456;BME280;15682;56.742;38.866;2023-11-19T01:55:06;100380.0;;;-5.5;82.7
28456;BME280;15682;56.742;38.866;2023-11-19T01:57:04;100380.0;;;-5.5;81.7
28456;BME280;15682;56.742;38.866;2023-11-19T01:59:04;100370.0;;;-5.5;81.7
28456;BME280;15682;56.742;38.866;2023-11-19T02:01:05;100360.0;;;-5.5;81.7
28456;BME280;15682;56.742;38.866;2023-11-19T02:03:05;100360.0;;;-5.7;81.7
28456;BME280;15682;56.742;38.866;2023-11-19T02:05:04;100360.0;;;-5.7;81.7
28456;BME280;15682;56.742;38.866;2023-11-19T02:07:04;100360.0;;;-5.6;81.7
28456;BME280;15682;56.742;38.866;2023-11-19T02:09:03;100360.0;;;-5.6;81.7
28456;BME280;15682;56.742;38.866;2023-11-19T02:11:03;100360.0;;;-5.6;81.7
28456;BME280;15682;56.742;38.866;2023-11-19T02:13:03;100360.0;;;-5.6;81.7
28456;BME280;15682;56.742;38.866;2023-11-19T02:15:03;100350.0;;;-5.6;81.0
28456;BME280;15682;56.742;38.866;2023-11-19T02:17:03;100350.0;;;-5.6;81.4
28456;BME280;15682;56.742;38.866;2023-11-19T02:19:02;100350.0;;;-5.6;81.6
28456;BME280;15682;56.742;38.866;2023-11-19T02:21:02;100350.0;;;-5.6;82.3
28456;BME280;15682;56.742;38.866;2023-11-19T02:23:02;100350.0;;;-5.6;81.5
28456;BME280;15682;56.742;38.866;2023-11-19T02:25:05;100350.0;;;-5.6;81.5
28456;BME280;15682;56.742;38.866;2023-11-19T02:27:10;100350.0;;;-5.6;83.1
28456;BME280;15682;56.742;38.866;2023-11-19T02:29:01;100350.0;;;-5.6;81.8
28456;BME280;15682;56.742;38.866;2023-11-19T02:31:01;100350.0;;;-5.6;81.8
28456;BME280;15682;56.742;38.866;2023-11-19T02:33:01;100350.0;;;-5.6;81.8
28456;BME280;15682;56.742;38.866;2023-11-19T02:35:01;100350.0;;;-5.6;82.4
28456;BME280;15682;56.742;38.866;2023-11-19T02:37:01;100350.0;;;-5.6;82.6
28456;BME280;15682;56.742;38.866;2023-11-19T02:39:00;100350.0;;;-5.6;82.6
28456;BME280;15682;56.742;38.866;2023-11-19T02:41:02;100350.0;;;-5.6;82.6
28456;BME280;15682;56.742;38.866;2023-11-19T02:43:00;100350.0;;;-5.6;81.3
28456;BME280;15682;56.742;38.866;2023-11-19T02:45:00;100350.0;;;-5.7;81.8
28456;BME280;15682;56.742;38.866;2023-11-19T02:47:00;100350.0;;;-5.7;83.5
28456;BME280;15682;56.742;38.866;2023-11-19T02:48:59;100350.0;;;-5.7;82.0
28456;BME280;15682;56.742;38.866;2023-11-19T02:50:59;100350.0;;;-5.7;83.2
28456;BME280;15682;56.742;38.866;2023-11-19T02:52:59;100350.0;;;-5.7;82.0
28456;BME280;15682;56.742;38.866;2023-11-19T02:54:59;100350.0;;;-5.6;82.0
28456;BME280;15682;56.742;38.866;2023-11-19T02:56:59;100350.0;;;-5.6;82.6
28456;BME280;15682;56.742;38.866;2023-11-19T02:58:58;100330.0;;;-5.7;81.6
28456;BME280;15682;56.742;38.866;2023-11-19T03:00:58;100330.0;;;-5.6;81.6
28456;BME280;15682;56.742;38.866;2023-11-19T03:02:58;100330.0;;;-5.6;83.9
28456;BME280;15682;56.742;38.866;2023-11-19T03:04:58;100330.0;;;-5.5;82.3
28456;BME280;15682;56.742;38.866;2023-11-19T03:06:58;100330.0;;;-5.5;83.1
28456;BME280;15682;56.742;38.866;2023-11-19T03:08:57;100330.0;;;-5.5;83.8
28456;BME280;15682;56.742;38.866;2023-11-19T03:10:57;100320.0;;;-5.5;82.8
28456;BME280;15682;56.742;38.866;2023-11-19T03:12:57;100320.0;;;-5.7;82.8
28456;BME280;15682;56.742;38.866;2023-11-19T03:14:57;100320.0;;;-5.6;82.8
28456;BME280;15682;56.742;38.866;2023-11-19T03:16:57;100320.0;;;-5.6;82.3
28456;BME280;15682;56.742;38.866;2023-11-19T03:18:57;100320.0;;;-5.6;83.4
28456;BME280;15682;56.742;38.866;2023-11-19T03:20:56;100320.0;;;-5.6;82.9
28456;BME280;15682;56.742;38.866;2023-11-19T03:22:56;100320.0;;;-5.6;84.1
28456;BME280;15682;56.742;38.866;2023-11-19T03:24:56;100320.0;;;-5.4;83.9
28456;BME280;15682;56.742;38.866;2023-11-19T03:26:56;100320.0;;;-5.5;84.1
28456;BME280;15682;56.742;38.866;2023-11-19T03:28:56;100320.0;;;-5.3;85.3
28456;BME280;15682;56.742;38.866;2023-11-19T03:30:56;100310.0;;;-5.5;84.3
28456;BME280;15682;56.742;38.866;2023-11-19T03:32:55;100310.0;;;-5.7;84.2
28456;BME280;15682;56.742;38.866;2023-11-19T03:34:55;100310.0;;;-5.5;86.1
28456;BME280;15682;56.742;38.866;2023-11-19T03:36:55;100310.0;;;-5.7;82.8
28456;BME280;15682;56.742;38.866;2023-11-19T03:38:55;100310.0;;;-5.7;83.7
28456;BME280;15682;56.742;38.866;2023-11-19T03:40:55;100310.0;;;-5.3;84.7
28456;BME280;15682;56.742;38.866;2023-11-19T03:42:56;100310.0;;;-5.4;84.7
28456;BME280;15682;56.742;38.866;2023-11-19T03:44:54;100310.0;;;-5.2;88.5
28456;BME280;15682;56.742;38.866;2023-11-19T03:46:54;100310.0;;;-5.5;85.2
28456;BME280;15682;56.742;38.866;2023-11-19T03:48:54;100310.0;;;-5.4;87.3
28456;BME280;15682;56.742;38.866;2023-11-19T03:50:54;100300.0;;;-5.5;85.8
28456;BME280;15682;56.742;38.866;2023-11-19T03:52:53;100300.0;;;-5.5;85.7
28456;BME280;15682;56.742;38.866;2023-11-19T03:54:53;100300.0;;;-5.7;85.7
28456;BME280;15682;56.742;38.866;2023-11-19T03:56:53;100300.0;;;-5.7;86.4
28456;BME280;15682;56.742;38.866;2023-11-19T03:58:53;100300.0;;;-5.7;86.9
28456;BME280;15682;56.742;38.866;2023-11-19T04:00:53;100300.0;;;-5.9;86.9
28456;BME280;15682;56.742;38.866;2023-11-19T04:02:53;100300.0;;;-5.9;87.2
28456;BME280;15682;56.742;38.866;2023-11-19T04:04:52;100300.0;;;-5.9;87.2
28456;BME280;15682;56.742;38.866;2023-11-19T04:06:52;100300.0;;;-5.9;87.1
28456;BME280;15682;56.742;38.866;2023-11-19T04:08:52;100300.0;;;-5.9;88.4
28456;BME280;15682;56.742;38.866;2023-11-19T04:10:52;100300.0;;;-6.0;87.8
28456;BME280;15682;56.742;38.866;2023-11-19T04:12:52;100300.0;;;-6.0;87.8
28456;BME280;15682;56.742;38.866;2023-11-19T04:14:51;100300.0;;;-6.1;87.8
28456;BME280;15682;56.742;38.866;2023-11-19T04:16:51;100300.0;;;-6.1;87.5
28456;BME280;15682;56.742;38.866;2023-11-19T04:18:51;100300.0;;;-6.1;88.7
28456;BME280;15682;56.742;38.866;2023-11-19T04:20:51;100300.0;;;-6.1;88.0
28456;BME280;15682;56.742;38.866;2023-11-19T04:22:51;100290.0;;;-6.1;87.4
28456;BME280;15682;56.742;38.866;2023-11-19T04:24:50;100290.0;;;-5.9;86.7
28456;BME280;15682;56.742;38.866;2023-11-19T04:26:50;100290.0;;;-5.9;87.3
28456;BME280;15682;56.742;38.866;2023-11-19T04:28:50;100290.0;;;-5.9;88.3
28456;BME280;15682;56.742;38.866;2023-11-19T04:30:50;100290.0;;;-5.9;87.3
28456;BME280;15682;56.742;38.866;2023-11-19T04:32:50;100290.0;;;-5.9;88.1
28456;BME280;15682;56.742;38.866;2023-11-19T04:34:50;100290.0;;;-6.1;88.9
28456;BME280;15682;56.742;38.866;2023-11-19T04:36:49;100290.0;;;-6.1;88.5
28456;BME280;15682;56.742;38.866;2023-11-19T04:38:49;100290.0;;;-6.1;88.5
28456;BME280;15682;56.742;38.866;2023-11-19T04:40:49;100290.0;;;-6.1;89.2
28456;BME280;15682;56.742;38.866;2023-11-19T04:42:50;100290.0;;;-6.1;88.1
28456;BME280;15682;56.742;38.866;2023-11-19T04:44:48;100290.0;;;-6.0;88.8
28456;BME280;15682;56.742;38.866;2023-11-19T04:46:48;100290.0;;;-6.0;88.5
28456;BME280;15682;56.742;38.866;2023-11-19T04:48:48;100280.0;;;-6.0;89.3
28456;BME280;15682;56.742;38.866;2023-11-19T04:50:48;100280.0;;;-6.0;89.3
28456;BME280;15682;56.742;38.866;2023-11-19T04:52:48;100280.0;;;-6.1;88.5
28456;BME280;15682;56.742;38.866;2023-11-19T04:54:48;100280.0;;;-6.1;90.0
28456;BME280;15682;56.742;38.866;2023-11-19T04:56:47;100280.0;;;-6.1;89.3
28456;BME280;15682;56.742;38.866;2023-11-19T04:58:47;100280.0;;;-6.1;89.3
28456;BME280;15682;56.742;38.866;2023-11-19T05:00:47;100280.0;;;-6.1;89.3
28456;BME280;15682;56.742;38.866;2023-11-19T05:02:47;100280.0;;;-6.1;89.3
28456;BME280;15682;56.742;38.866;2023-11-19T05:04:46;100280.0;;;-6.2;89.9
28456;BME280;15682;56.742;38.866;2023-11-19T05:06:46;100280.0;;;-6.2;89.8
28456;BME280;15682;56.742;38.866;2023-11-19T05:08:46;100280.0;;;-6.4;90.5
28456;BME280;15682;56.742;38.866;2023-11-19T05:10:46;100280.0;;;-6.4;90.5
28456;BME280;15682;56.742;38.866;2023-11-19T05:12:46;100280.0;;;-6.2;90.5
28456;BME280;15682;56.742;38.866;2023-11-19T05:14:45;100280.0;;;-6.2;91.1
28456;BME280;15682;56.742;38.866;2023-11-19T05:16:45;100280.0;;;-6.4;91.4
28456;BME280;15682;56.742;38.866;2023-11-19T05:18:45;100280.0;;;-6.5;91.4
28456;BME280;15682;56.742;38.866;2023-11-19T05:20:45;100280.0;;;-6.5;91.8
28456;BME280;15682;56.742;38.866;2023-11-19T05:22:45;100280.0;;;-6.3;91.8
28456;BME280;15682;56.742;38.866;2023-11-19T05:24:44;100280.0;;;-6.3;91.8
28456;BME280;15682;56.742;38.866;2023-11-19T05:26:44;100280.0;;;-6.3;91.7
28456;BME280;15682;56.742;38.866;2023-11-19T05:28:44;100280.0;;;-6.3;91.7
28456;BME280;15682;56.742;38.866;2023-11-19T05:30:44;100280.0;;;-6.2;91.7
28456;BME280;15682;56.742;38.866;2023-11-19T05:32:44;100280.0;;;-6.2;91.7
28456;BME280;15682;56.742;38.866;2023-11-19T05:34:43;100280.0;;;-6.3;92.4
28456;BME280;15682;56.742;38.866;2023-11-19T05:36:43;100280.0;;;-6.3;91.8
28456;BME280;15682;56.742;38.866;2023-11-19T05:38:43;100280.0;;;-6.3;91.3
28456;BME280;15682;56.742;38.866;2023-11-19T05:40:43;100280.0;;;-6.3;91.3
28456;BME280;15682;56.742;38.866;2023-11-19T05:42:43;100280.0;;;-6.3;91.3
28456;BME280;15682;56.742;38.866;2023-11-19T05:44:42;100280.0;;;-6.2;91.9
28456;BME280;15682;56.742;38.866;2023-11-19T05:46:42;100280.0;;;-6.2;91.3
28456;BME280;15682;56.742;38.866;2023-11-19T05:48:42;100280.0;;;-6.0;92.1
28456;BME280;15682;56.742;38.866;2023-11-19T05:50:42;100280.0;;;-6.0;91.9
28456;BME280;15682;56.742;38.866;2023-11-19T05:52:41;100280.0;;;-6.2;91.3
28456;BME280;15682;56.742;38.866;2023-11-19T05:54:41;100300.0;;;-6.1;91.3
28456;BME280;15682;56.742;38.866;2023-11-19T05:56:41;100300.0;;;-6.1;91.2
28456;BME280;15682;56.742;38.866;2023-11-19T05:58:41;100300.0;;;-6.1;92.0
28456;BME280;15682;56.742;38.866;2023-11-19T06:00:41;100300.0;;;-6.1;91.0
28456;BME280;15682;56.742;38.866;2023-11-19T06:02:40;100280.0;;;-6.1;91.7
28456;BME280;15682;56.742;38.866;2023-11-19T06:04:40;100280.0;;;-6.1;91.1
28456;BME280;15682;56.742;38.866;2023-11-19T06:06:40;100280.0;;;-6.2;90.9
28456;BME280;15682;56.742;38.866;2023-11-19T06:08:40;100280.0;;;-6.1;91.6
28456;BME280;15682;56.742;38.866;2023-11-19T06:10:40;100280.0;;;-6.1;91.6
28456;BME280;15682;56.742;38.866;2023-11-19T06:12:39;100280.0;;;-6.1;90.9
28456;BME280;15682;56.742;38.866;2023-11-19T06:14:40;100280.0;;;-5.9;90.9
28456;BME280;15682;56.742;38.866;2023-11-19T06:16:39;100280.0;;;-5.8;90.9
28456;BME280;15682;56.742;38.866;2023-11-19T06:18:39;100280.0;;;-5.8;90.1
28456;BME280;15682;56.742;38.866;2023-11-19T06:20:39;100280.0;;;-5.8;90.1
28456;BME280;15682;56.742;38.866;2023-11-19T06:22:38;100280.0;;;-5.7;91.3
28456;BME280;15682;56.742;38.866;2023-11-19T06:24:38;100280.0;;;-5.8;89.3
28456;BME280;15682;56.742;38.866;2023-11-19T06:26:38;100280.0;;;-5.8;90.1
28456;BME280;15682;56.742;38.866;2023-11-19T06:28:38;100280.0;;;-5.8;90.1
28456;BME280;15682;56.742;38.866;2023-11-19T06:30:38;100280.0;;;-5.9;89.3
28456;BME280;15682;56.742;38.866;2023-11-19T06:32:37;100280.0;;;-5.9;89.9
28456;BME280;15682;56.742;38.866;2023-11-19T06:34:37;100280.0;;;-5.8;89.9
28456;BME280;15682;56.742;38.866;2023-11-19T06:36:37;100280.0;;;-5.8;90.1
28456;BME280;15682;56.742;38.866;2023-11-19T06:38:37;100280.0;;;-5.8;89.3
28456;BME280;15682;56.742;38.866;2023-11-19T06:40:37;100280.0;;;-5.8;89.3
28456;BME280;15682;56.742;38.866;2023-11-19T06:42:37;100280.0;;;-5.6;90.1
28456;BME280;15682;56.742;38.866;2023-11-19T06:44:36;100280.0;;;-5.7;89.6
28456;BME280;15682;56.742;38.866;2023-11-19T06:46:36;100280.0;;;-5.7;89.8
28456;BME280;15682;56.742;38.866;2023-11-19T06:48:36;100280.0;;;-5.7;89.8
28456;BME280;15682;56.742;38.866;2023-11-19T06:50:36;100280.0;;;-5.7;89.3
28456;BME280;15682;56.742;38.866;2023-11-19T06:52:36;100280.0;;;-5.7;89.3
28456;BME280;15682;56.742;38.866;2023-11-19T06:54:35;100280.0;;;-5.5;89.3
28456;BME280;15682;56.742;38.866;2023-11-19T06:56:35;100280.0;;;-5.4;89.0
28456;BME280;15682;56.742;38.866;2023-11-19T06:58:36;100280.0;;;-5.3;88.4
28456;BME280;15682;56.742;38.866;2023-11-19T07:00:35;100280.0;;;-5.3;88.4
28456;BME280;15682;56.742;38.866;2023-11-19T07:02:35;100280.0;;;-5.3;89.1
28456;BME280;15682;56.742;38.866;2023-11-19T07:04:34;100280.0;;;-5.4;88.6
28456;BME280;15682;56.742;38.866;2023-11-19T07:06:35;100280.0;;;-5.6;88.9
28456;BME280;15682;56.742;38.866;2023-11-19T07:08:34;100280.0;;;-5.4;88.9
28456;BME280;15682;56.742;38.866;2023-11-19T07:10:34;100280.0;;;-5.4;88.9
28456;BME280;15682;56.742;38.866;2023-11-19T07:12:34;100280.0;;;-5.2;89.4
28456;BME280;15682;56.742;38.866;2023-11-19T07:14:34;100280.0;;;-5.1;87.9
28456;BME280;15682;56.742;38.866;2023-11-19T07:16:34;100280.0;;;-5.1;88.0
28456;BME280;15682;56.742;38.866;2023-11-19T07:18:33;100280.0;;;-5.1;88.0
28456;BME280;15682;56.742;38.866;2023-11-19T07:20:33;100280.0;;;-5.1;86.6
28456;BME280;15682;56.742;38.866;2023-11-19T07:22:33;100280.0;;;-5.1;86.6
28456;BME280;15682;56.742;38.866;2023-11-19T07:24:33;100280.0;;;-5.1;86.4
28456;BME280;15682;56.742;38.866;2023-11-19T07:26:33;100280.0;;;-5.1;86.7
28456;BME280;15682;56.742;38.866;2023-11-19T07:28:32;100280.0;;;-5.1;86.7
28456;BME280;15682;56.742;38.866;2023-11-19T07:30:32;100280.0;;;-4.9;86.7
28456;BME280;15682;56.742;38.866;2023-11-19T07:32:32;100280.0;;;-4.8;87.8
28456;BME280;15682;56.742;38.866;2023-11-19T07:34:32;100280.0;;;-4.7;88.6
28456;BME280;15682;56.742;38.866;2023-11-19T07:36:32;100280.0;;;-4.7;87.4
28456;BME280;15682;56.742;38.866;2023-11-19T07:38:32;100280.0;;;-4.9;86.4
28456;BME280;15682;56.742;38.866;2023-11-19T07:40:31;100280.0;;;-4.7;86.9
28456;BME280;15682;56.742;38.866;2023-11-19T07:42:31;100290.0;;;-4.6;86.9
28456;BME280;15682;56.742;38.866;2023-11-19T07:44:31;100290.0;;;-4.6;86.9
28456;BME280;15682;56.742;38.866;2023-11-19T07:46:31;100290.0;;;-4.6;85.6
28456;BME280;15682;56.742;38.866;2023-11-19T07:48:31;100290.0;;;-4.5;86.5
28456;BME280;15682;56.742;38.866;2023-11-19T07:50:31;100290.0;;;-4.6;85.4
28456;BME280;15682;56.742;38.866;2023-11-19T07:52:31;100290.0;;;-4.6;86.0
28456;BME280;15682;56.742;38.866;2023-11-19T07:54:30;100290.0;;;-4.6;86.0
28456;BME280;15682;56.742;38.866;2023-11-19T07:58:30;100280.0;;;-4.6;86.0
28456;BME280;15682;56.742;38.866;2023-11-19T08:00:30;100280.0;;;-4.6;86.0
28456;BME280;15682;56.742;38.866;2023-11-19T08:02:30;100280.0;;;-4.6;85.7
28456;BME280;15682;56.742;38.866;2023-11-19T08:04:30;100280.0;;;-4.6;85.7
28456;BME280;15682;56.742;38.866;2023-11-19T08:06:30;100280.0;;;-4.6;85.4
28456;BME280;15682;56.742;38.866;2023-11-19T08:08:29;100280.0;;;-4.6;83.8
28456;BME280;15682;56.742;38.866;2023-11-19T08:10:29;100280.0;;;-4.6;83.8
28456;BME280;15682;56.742;38.866;2023-11-19T08:12:29;100280.0;;;-4.5;83.2
28456;BME280;15682;56.742;38.866;2023-11-19T08:14:29;100280.0;;;-4.4;82.5
28456;BME280;15682;56.742;38.866;2023-11-19T08:16:29;100280.0;;;-4.3;84.2
28456;BME280;15682;56.742;38.866;2023-11-19T08:18:29;100280.0;;;-4.1;82.4
28456;BME280;15682;56.742;38.866;2023-11-19T08:20:28;100280.0;;;-4.1;83.1
28456;BME280;15682;56.742;38.866;2023-11-19T08:22:28;100280.0;;;-4.1;82.5
28456;BME280;15682;56.742;38.866;2023-11-19T08:24:28;100280.0;;;-4.3;81.3
28456;BME280;15682;56.742;38.866;2023-11-19T08:26:28;100280.0;;;-4.3;81.7
28456;BME280;15682;56.742;38.866;2023-11-19T08:28:28;100280.0;;;-4.3;82.7
28456;BME280;15682;56.742;38.866;2023-11-19T08:30:28;100280.0;;;-4.3;83.0
28456;BME280;15682;56.742;38.866;2023-11-19T08:32:28;100280.0;;;-4.3;83.0
28456;BME280;15682;56.742;38.866;2023-11-19T08:34:27;100270.0;;;-4.3;83.0
28456;BME280;15682;56.742;38.866;2023-11-19T08:36:27;100270.0;;;-4.2;82.3
28456;BME280;15682;56.742;38.866;2023-11-19T08:38:27;100270.0;;;-4.2;82.3
28456;BME280;15682;56.742;38.866;2023-11-19T08:40:27;100270.0;;;-4.3;82.3
28456;BME280;15682;56.742;38.866;2023-11-19T08:42:27;100270.0;;;-4.3;82.3
28456;BME280;15682;56.742;38.866;2023-11-19T08:44:27;100270.0;;;-4.3;81.7
28456;BME280;15682;56.742;38.866;2023-11-19T08:46:27;100270.0;;;-4.3;83.2
28456;BME280;15682;56.742;38.866;2023-11-19T08:48:26;100270.0;;;-4.3;82.6
28456;BME280;15682;56.742;38.866;2023-11-19T08:50:26;100270.0;;;-4.3;81.3
28456;BME280;15682;56.742;38.866;2023-11-19T08:52:26;100270.0;;;-4.2;81.3
28456;BME280;15682;56.742;38.866;2023-11-19T08:54:26;100270.0;;;-4.2;80.7
28456;BME280;15682;56.742;38.866;2023-11-19T08:56:26;100270.0;;;-4.3;80.4
28456;BME280;15682;56.742;38.866;2023-11-19T08:58:26;100250.0;;;-4.3;81.5
28456;BME280;15682;56.742;38.866;2023-11-19T09:00:26;100250.0;;;-4.5;82.3
28456;BME280;15682;56.742;38.866;2023-11-19T09:02:25;100250.0;;;-4.5;83.7
28456;BME280;15682;56.742;38.866;2023-11-19T09:04:25;100250.0;;;-4.4;83.2
28456;BME280;15682;56.742;38.866;2023-11-19T09:06:25;100250.0;;;-4.4;83.4
28456;BME280;15682;56.742;38.866;2023-11-19T09:08:25;100250.0;;;-4.4;83.9
28456;BME280;15682;56.742;38.866;2023-11-19T09:10:25;100240.0;;;-4.6;83.3
28456;BME280;15682;56.742;38.866;2023-11-19T09:12:25;100240.0;;;-4.6;84.1
28456;BME280;15682;56.742;38.866;2023-11-19T09:14:25;100230.0;;;-4.5;85.0
28456;BME280;15682;56.742;38.866;2023-11-19T09:16:24;100220.0;;;-4.3;82.8
28456;BME280;15682;56.742;38.866;2023-11-19T09:18:24;100220.0;;;-4.5;82.8
28456;BME280;15682;56.742;38.866;2023-11-19T09:20:24;100220.0;;;-4.6;82.8
28456;BME280;15682;56.742;38.866;2023-11-19T09:22:24;100220.0;;;-4.4;83.8
28456;BME280;15682;56.742;38.866;2023-11-19T09:24:24;100220.0;;;-4.5;83.8
28456;BME280;15682;56.742;38.866;2023-11-19T09:26:24;100220.0;;;-4.4;84.2
28456;BME280;15682;56.742;38.866;2023-11-19T09:28:24;100220.0;;;-4.4;84.4
28456;BME280;15682;56.742;38.866;2023-11-19T09:30:23;100220.0;;;-4.4;83.1
28456;BME280;15682;56.742;38.866;2023-11-19T09:32:23;100220.0;;;-4.6;83.1
28456;BME280;15682;56.742;38.866;2023-11-19T09:34:23;100220.0;;;-4.5;83.1
28456;BME280;15682;56.742;38.866;2023-11-19T09:36:23;100220.0;;;-4.5;84.9
28456;BME280;15682;56.742;38.866;2023-11-19T09:38:23;100220.0;;;-4.5;83.6
28456;BME280;15682;56.742;38.866;2023-11-19T09:40:24;100220.0;;;-4.5;83.6
28456;BME280;15682;56.742;38.866;2023-11-19T09:42:24;100220.0;;;-4.5;85.5
28456;BME280;15682;56.742;38.866;2023-11-19T09:44:22;100220.0;;;-4.5;84.6
28456;BME280;15682;56.742;38.866;2023-11-19T09:46:22;100220.0;;;-4.5;84.8
28456;BME280;15682;56.742;38.866;2023-11-19T09:48:25;100220.0;;;-4.6;85.4
28456;BME280;15682;56.742;38.866;2023-11-19T09:50:22;100220.0;;;-4.5;85.4
28456;BME280;15682;56.742;38.866;2023-11-19T09:52:22;100220.0;;;-4.5;86.4
28456;BME280;15682;56.742;38.866;2023-11-19T09:54:22;100220.0;;;-4.5;85.7
28456;BME280;15682;56.742;38.866;2023-11-19T09:56:22;100220.0;;;-4.5;85.3
28456;BME280;15682;56.742;38.866;2023-11-19T09:58:22;100210.0;;;-4.6;85.3
28456;BME280;15682;56.742;38.866;2023-11-19T10:00:21;100220.0;;;-4.7;85.3
28456;BME280;15682;56.742;38.866;2023-11-19T10:02:21;100220.0;;;-4.7;86.2
28456;BME280;15682;56.742;38.866;2023-11-19T10:04:21;100220.0;;;-4.5;85.6
28456;BME280;15682;56.742;38.866;2023-11-19T10:06:21;100220.0;;;-4.6;85.2
28456;BME280;15682;56.742;38.866;2023-11-19T10:08:21;100220.0;;;-4.6;85.4
28456;BME280;15682;56.742;38.866;2023-11-19T10:10:20;100220.0;;;-4.6;86.8
28456;BME280;15682;56.742;38.866;2023-11-19T10:12:20;100220.0;;;-4.6;85.4
28456;BME280;15682;56.742;38.866;2023-11-19T10:14:23;100220.0;;;-4.6;84.7
28456;BME280;15682;56.742;38.866;2023-11-19T10:16:20;100220.0;;;-4.7;84.2
28456;BME280;15682;56.742;38.866;2023-11-19T10:18:24;100220.0;;;-4.7;84.2
28456;BME280;15682;56.742;38.866;2023-11-19T10:20:20;100220.0;;;-4.9;84.2
28456;BME280;15682;56.742;38.866;2023-11-19T10:22:20;100220.0;;;-4.7;84.8
28456;BME280;15682;56.742;38.866;2023-11-19T10:24:31;100220.0;;;-4.8;84.0
28456;BME280;15682;56.742;38.866;2023-11-19T10:26:20;100220.0;;;-4.9;84.2
28456;BME280;15682;56.742;38.866;2023-11-19T10:28:19;100200.0;;;-4.9;84.2
28456;BME280;15682;56.742;38.866;2023-11-19T10:30:21;100200.0;;;-5.0;84.2
28456;BME280;15682;56.742;38.866;2023-11-19T10:32:19;100200.0;;;-5.0;84.7
28456;BME280;15682;56.742;38.866;2023-11-19T10:34:24;100200.0;;;-4.9;84.7
28456;BME280;15682;56.742;38.866;2023-11-19T10:36:18;100200.0;;;-4.9;84.2
28456;BME280;15682;56.742;38.866;2023-11-19T10:38:19;100200.0;;;-4.9;84.2
28456;BME280;15682;56.742;38.866;2023-11-19T10:40:18;100200.0;;;-4.9;84.2
28456;BME280;15682;56.742;38.866;2023-11-19T10:42:18;100200.0;;;-5.0;84.2
28456;BME280;15682;56.742;38.866;2023-11-19T10:44:32;100200.0;;;-5.0;84.2